sensor_id;sensor_type;location;lat;lon;timestamp;pressure;altitude;pressure_sealevel;temperature;humidity
64521;BME280;50896;46.714;17.322;2024-02-21T00:03:29;101448.06;;;7.98;100.00
64521;BME280;50896;46.714;17.322;2024-02-21T00:05:56;101435.53;;;7.89;100.00
64521;BME280;50896;46.714;17.322;2024-02-21T00:08:24;101441.06;;;7.86;100.00
64521;BME280;50896;46.714;17.322;2024-02-21T00:10:51;101445.19;;;7.90;100.00
64521;BME280;50896;46.714;17.322;2024-02-21T00:13:18;101443.84;;;7.84;100.00
64521;BME280;50896;46.714;17.322;2024-02-21T00:15:45;101442.53;;;7.79;100.00
64521;BME280;50896;46.714;17.322;2024-02-21T00:18:12;101441.66;;;7.67;100.00
64521;BME280;50896;46.714;17.322;2024-02-21T00:20:39;101440.81;;;7.66;100.00
64521;BME280;50896;46.714;17.322;2024-02-21T00:23:06;101436.09;;;7.59;100.00
64521;BME280;50896;46.714;17.322;2024-02-21T00:25:33;101444.03;;;7.59;100.00
64521;BME280;50896;46.714;17.322;2024-02-21T00:28:00;101427.91;;;7.62;100.00
64521;BME280;50896;46.714;17.322;2024-02-21T00:30:27;101435.75;;;7.63;100.00
64521;BME280;50896;46.714;17.322;2024-02-21T00:32:54;101425.25;;;7.62;100.00
64521;BME280;50896;46.714;17.322;2024-02-21T00:35:21;101429.38;;;7.66;100.00
64521;BME280;50896;46.714;17.322;2024-02-21T00:37:48;101439.75;;;7.69;100.00
64521;BME280;50896;46.714;17.322;2024-02-21T00:40:15;101435.75;;;7.63;100.00
64521;BME280;50896;46.714;17.322;2024-02-21T00:42:47;101426.81;;;7.53;100.00
64521;BME280;50896;46.714;17.322;2024-02-21T00:45:14;101445.22;;;7.43;100.00
64521;BME280;50896;46.714;17.322;2024-02-21T00:47:40;101439.09;;;7.43;100.00
64521;BME280;50896;46.714;17.322;2024-02-21T00:50:08;101440.16;;;7.40;100.00
64521;BME280;50896;46.714;17.322;2024-02-21T00:52:36;101433.78;;;7.31;100.00
64521;BME280;50896;46.714;17.322;2024-02-21T00:55:04;101435.09;;;7.37;100.00
64521;BME280;50896;46.714;17.322;2024-02-21T00:57:34;101429.66;;;7.27;100.00
64521;BME280;50896;46.714;17.322;2024-02-21T01:00:04;101435.78;;;7.28;100.00
64521;BME280;50896;46.714;17.322;2024-02-21T01:02:31;101435.28;;;7.23;100.00
64521;BME280;50896;46.714;17.322;2024-02-21T01:04:58;101432.59;;;7.11;100.00
64521;BME280;50896;46.714;17.322;2024-02-21T01:07:25;101430.53;;;7.04;100.00
64521;BME280;50896;46.714;17.322;2024-02-21T01:09:52;101431.28;;;7.17;100.00
64521;BME280;50896;46.714;17.322;2024-02-21T01:12:19;101428.50;;;7.07;100.00
64521;BME280;50896;46.714;17.322;2024-02-21T01:14:46;101430.19;;;7.08;100.00
64521;BME280;50896;46.714;17.322;2024-02-21T01:17:13;101429.09;;;6.99;100.00
64521;BME280;50896;46.714;17.322;2024-02-21T01:19:40;101420.09;;;7.02;100.00
64521;BME280;50896;46.714;17.322;2024-02-21T01:22:07;101420.66;;;6.94;100.00
64521;BME280;50896;46.714;17.322;2024-02-21T01:24:33;101424.59;;;6.89;100.00
64521;BME280;50896;46.714;17.322;2024-02-21T01:27:00;101425.66;;;6.86;100.00
64521;BME280;50896;46.714;17.322;2024-02-21T01:29:28;101418.19;;;6.80;100.00
64521;BME280;50896;46.714;17.322;2024-02-21T01:31:55;101427.28;;;6.76;100.00
64521;BME280;50896;46.714;17.322;2024-02-21T01:34:22;101417.25;;;6.81;100.00
64521;BME280;50896;46.714;17.322;2024-02-21T01:36:49;101420.94;;;6.78;100.00
64521;BME280;50896;46.714;17.322;2024-02-21T01:39:16;101416.72;;;6.76;100.00
64521;BME280;50896;46.714;17.322;2024-02-21T01:41:43;101415.09;;;6.62;100.00
64521;BME280;50896;46.714;17.322;2024-02-21T01:44:09;101422.44;;;6.70;100.00
64521;BME280;50896;46.714;17.322;2024-02-21T01:46:36;101417.03;;;6.71;100.00
64521;BME280;50896;46.714;17.322;2024-02-21T01:49:04;101413.44;;;6.72;100.00
64521;BME280;50896;46.714;17.322;2024-02-21T01:51:32;101405.28;;;6.75;100.00
64521;BME280;50896;46.714;17.322;2024-02-21T01:53:59;101411.56;;;6.74;100.00
64521;BME280;50896;46.714;17.322;2024-02-21T01:56:27;101409.50;;;6.78;100.00
64521;BME280;50896;46.714;17.322;2024-02-21T01:58:55;101399.28;;;6.73;100.00
64521;BME280;50896;46.714;17.322;2024-02-21T02:01:22;101409.41;;;6.79;100.00
64521;BME280;50896;46.714;17.322;2024-02-21T02:03:49;101399.28;;;6.73;100.00
64521;BME280;50896;46.714;17.322;2024-02-21T02:06:16;101388.72;;;6.73;100.00
64521;BME280;50896;46.714;17.322;2024-02-21T02:08:44;101395.34;;;6.79;100.00
64521;BME280;50896;46.714;17.322;2024-02-21T02:11:13;101392.72;;;6.79;100.00
64521;BME280;50896;46.714;17.322;2024-02-21T02:13:40;101396.53;;;6.75;100.00
64521;BME280;50896;46.714;17.322;2024-02-21T02:16:07;101397.53;;;6.85;100.00
64521;BME280;50896;46.714;17.322;2024-02-21T02:18:34;101393.34;;;6.82;100.00
64521;BME280;50896;46.714;17.322;2024-02-21T02:21:01;101388.88;;;6.83;100.00
64521;BME280;50896;46.714;17.322;2024-02-21T02:23:31;101383.19;;;6.76;100.00
64521;BME280;50896;46.714;17.322;2024-02-21T02:25:59;101391.00;;;6.78;100.00
64521;BME280;50896;46.714;17.322;2024-02-21T02:28:27;101395.22;;;6.80;100.00
64521;BME280;50896;46.714;17.322;2024-02-21T02:30:54;101389.34;;;6.77;100.00
64521;BME280;50896;46.714;17.322;2024-02-21T02:33:21;101381.50;;;6.75;100.00
64521;BME280;50896;46.714;17.322;2024-02-21T02:35:48;101386.78;;;6.75;100.00
64521;BME280;50896;46.714;17.322;2024-02-21T02:38:15;101385.53;;;6.81;100.00
64521;BME280;50896;46.714;17.322;2024-02-21T02:40:42;101390.19;;;6.77;100.00
64521;BME280;50896;46.714;17.322;2024-02-21T02:43:09;101387.97;;;6.71;100.00
64521;BME280;50896;46.714;17.322;2024-02-21T02:45:36;101388.84;;;6.72;100.00
64521;BME280;50896;46.714;17.322;2024-02-21T02:48:04;101376.06;;;6.65;100.00
64521;BME280;50896;46.714;17.322;2024-02-21T02:50:31;101386.19;;;6.72;100.00
64521;BME280;50896;46.714;17.322;2024-02-21T02:52:59;101372.59;;;6.65;100.00
64521;BME280;50896;46.714;17.322;2024-02-21T02:55:26;101389.06;;;6.69;100.00
64521;BME280;50896;46.714;17.322;2024-02-21T02:57:54;101373.41;;;6.65;100.00
64521;BME280;50896;46.714;17.322;2024-02-21T03:00:21;101383.28;;;6.63;100.00
64521;BME280;50896;46.714;17.322;2024-02-21T03:02:49;101384.09;;;6.64;100.00
64521;BME280;50896;46.714;17.322;2024-02-21T03:05:20;101367.88;;;6.57;100.00
64521;BME280;50896;46.714;17.322;2024-02-21T03:07:49;101377.16;;;6.63;100.00
64521;BME280;50896;46.714;17.322;2024-02-21T03:10:17;101375.47;;;6.62;100.00
64521;BME280;50896;46.714;17.322;2024-02-21T03:12:45;101377.63;;;6.68;100.00
64521;BME280;50896;46.714;17.322;2024-02-21T03:15:13;101381.47;;;6.64;100.00
64521;BME280;50896;46.714;17.322;2024-02-21T03:17:41;101377.97;;;6.63;100.00
64521;BME280;50896;46.714;17.322;2024-02-21T03:20:09;101375.22;;;6.65;100.00
64521;BME280;50896;46.714;17.322;2024-02-21T03:22:38;101369.31;;;6.61;100.00
64521;BME280;50896;46.714;17.322;2024-02-21T03:25:06;101375.34;;;6.63;100.00
64521;BME280;50896;46.714;17.322;2024-02-21T03:27:35;101373.75;;;6.61;100.00
64521;BME280;50896;46.714;17.322;2024-02-21T03:30:02;101370.84;;;6.53;100.00
64521;BME280;50896;46.714;17.322;2024-02-21T03:32:29;101379.63;;;6.53;100.00
64521;BME280;50896;46.714;17.322;2024-02-21T03:34:56;101372.53;;;6.54;100.00
64521;BME280;50896;46.714;17.322;2024-02-21T03:37:23;101381.81;;;6.59;100.00
64521;BME280;50896;46.714;17.322;2024-02-21T03:39:50;101383.94;;;6.54;100.00
64521;BME280;50896;46.714;17.322;2024-02-21T03:42:17;101383.56;;;6.47;100.00
64521;BME280;50896;46.714;17.322;2024-02-21T03:44:45;101391.69;;;6.44;100.00
64521;BME280;50896;46.714;17.322;2024-02-21T03:47:12;101383.34;;;6.38;100.00
64521;BME280;50896;46.714;17.322;2024-02-21T03:49:39;101385.91;;;6.39;100.00
64521;BME280;50896;46.714;17.322;2024-02-21T03:52:06;101382.63;;;6.36;100.00
64521;BME280;50896;46.714;17.322;2024-02-21T03:54:33;101381.16;;;6.31;100.00
64521;BME280;50896;46.714;17.322;2024-02-21T03:57:00;101380.13;;;6.34;100.00
64521;BME280;50896;46.714;17.322;2024-02-21T03:59:27;101383.69;;;6.33;100.00
64521;BME280;50896;46.714;17.322;2024-02-21T04:01:54;101377.19;;;6.26;100.00
64521;BME280;50896;46.714;17.322;2024-02-21T04:04:21;101380.75;;;6.25;100.00
64521;BME280;50896;46.714;17.322;2024-02-21T04:06:49;101367.78;;;6.22;100.00
64521;BME280;50896;46.714;17.322;2024-02-21T04:09:16;101359.09;;;6.32;100.00
64521;BME280;50896;46.714;17.322;2024-02-21T04:11:43;101377.91;;;6.28;100.00
64521;BME280;50896;46.714;17.322;2024-02-21T04:14:11;101368.31;;;6.27;100.00
64521;BME280;50896;46.714;17.322;2024-02-21T04:16:38;101372.63;;;6.28;100.00
64521;BME280;50896;46.714;17.322;2024-02-21T04:19:08;101371.59;;;6.18;100.00
64521;BME280;50896;46.714;17.322;2024-02-21T04:21:35;101357.69;;;6.15;100.00
64521;BME280;50896;46.714;17.322;2024-02-21T04:24:03;101364.50;;;6.18;100.00
64521;BME280;50896;46.714;17.322;2024-02-21T04:26:33;101360.84;;;6.08;100.00
64521;BME280;50896;46.714;17.322;2024-02-21T04:29:00;101365.41;;;6.06;100.00
64521;BME280;50896;46.714;17.322;2024-02-21T04:31:27;101358.78;;;6.00;100.00
64521;BME280;50896;46.714;17.322;2024-02-21T04:33:55;101365.84;;;5.99;100.00
64521;BME280;50896;46.714;17.322;2024-02-21T04:36:22;101355.47;;;5.96;100.00
64521;BME280;50896;46.714;17.322;2024-02-21T04:38:49;101359.84;;;5.97;100.00
64521;BME280;50896;46.714;17.322;2024-02-21T04:41:16;101360.66;;;5.98;100.00
64521;BME280;50896;46.714;17.322;2024-02-21T04:43:46;101365.84;;;5.99;100.00
64521;BME280;50896;46.714;17.322;2024-02-21T04:46:14;101351.91;;;5.97;100.00
64521;BME280;50896;46.714;17.322;2024-02-21T04:48:41;101355.28;;;5.99;100.00
64521;BME280;50896;46.714;17.322;2024-02-21T04:51:07;101350.53;;;6.05;100.00
64521;BME280;50896;46.714;17.322;2024-02-21T04:53:34;101351.81;;;5.99;100.00
64521;BME280;50896;46.714;17.322;2024-02-21T04:56:01;101357.91;;;5.99;100.00
64521;BME280;50896;46.714;17.322;2024-02-21T04:58:28;101358.94;;;5.97;100.00
64521;BME280;50896;46.714;17.322;2024-02-21T05:00:55;101340.59;;;5.95;100.00
64521;BME280;50896;46.714;17.322;2024-02-21T05:03:22;101349.44;;;5.94;100.00
64521;BME280;50896;46.714;17.322;2024-02-21T05:05:49;101358.34;;;6.06;100.00
64521;BME280;50896;46.714;17.322;2024-02-21T05:08:16;101362.66;;;6.07;100.00
64521;BME280;50896;46.714;17.322;2024-02-21T05:10:43;101353.28;;;6.03;100.00
64521;BME280;50896;46.714;17.322;2024-02-21T05:13:10;101353.50;;;6.00;100.00
64521;BME280;50896;46.714;17.322;2024-02-21T05:15:37;101350.09;;;5.98;100.00
64521;BME280;50896;46.714;17.322;2024-02-21T05:18:04;101344.50;;;5.90;100.00
64521;BME280;50896;46.714;17.322;2024-02-21T05:20:31;101351.47;;;6.04;100.00
64521;BME280;50896;46.714;17.322;2024-02-21T05:22:58;101358.44;;;6.05;100.00
64521;BME280;50896;46.714;17.322;2024-02-21T05:25:25;101348.81;;;6.04;100.00
64521;BME280;50896;46.714;17.322;2024-02-21T05:27:52;101359.38;;;6.04;100.00
64521;BME280;50896;46.714;17.322;2024-02-21T05:30:20;101356.75;;;5.91;100.00
64521;BME280;50896;46.714;17.322;2024-02-21T05:32:47;101365.50;;;5.91;100.00
64521;BME280;50896;46.714;17.322;2024-02-21T05:35:14;101365.09;;;5.85;100.00
64521;BME280;50896;46.714;17.322;2024-02-21T05:37:41;101359.50;;;5.89;100.00
64521;BME280;50896;46.714;17.322;2024-02-21T05:40:09;101359.19;;;5.81;100.00
64521;BME280;50896;46.714;17.322;2024-02-21T05:42:36;101365.09;;;5.85;100.00
64521;BME280;50896;46.714;17.322;2024-02-21T05:45:04;101371.66;;;5.92;100.00
64521;BME280;50896;46.714;17.322;2024-02-21T05:47:31;101369.94;;;5.91;100.00
64521;BME280;50896;46.714;17.322;2024-02-21T05:49:58;101372.59;;;5.91;100.00
64521;BME280;50896;46.714;17.322;2024-02-21T05:52:24;101371.41;;;5.95;100.00
64521;BME280;50896;46.714;17.322;2024-02-21T05:54:51;101382.81;;;5.95;100.00
64521;BME280;50896;46.714;17.322;2024-02-21T05:57:18;101374.63;;;6.00;100.00
64521;BME280;50896;46.714;17.322;2024-02-21T05:59:45;101369.72;;;5.94;100.00
64521;BME280;50896;46.714;17.322;2024-02-21T06:02:12;101379.44;;;5.93;100.00
64521;BME280;50896;46.714;17.322;2024-02-21T06:04:39;101382.91;;;5.94;100.00
64521;BME280;50896;46.714;17.322;2024-02-21T06:07:06;101374.19;;;5.93;100.00
64521;BME280;50896;46.714;17.322;2024-02-21T06:09:34;101369.00;;;5.92;100.00
64521;BME280;50896;46.714;17.322;2024-02-21T06:12:01;101375.22;;;5.91;100.00
64521;BME280;50896;46.714;17.322;2024-02-21T06:14:28;101373.13;;;5.96;100.00
64521;BME280;50896;46.714;17.322;2024-02-21T06:16:55;101369.72;;;5.94;100.00
64521;BME280;50896;46.714;17.322;2024-02-21T06:19:22;101374.41;;;5.90;100.00
64521;BME280;50896;46.714;17.322;2024-02-21T06:21:49;101373.53;;;5.90;100.00
64521;BME280;50896;46.714;17.322;2024-02-21T06:24:15;101372.69;;;5.89;100.00
64521;BME280;50896;46.714;17.322;2024-02-21T06:26:42;101383.16;;;5.91;100.00
64521;BME280;50896;46.714;17.322;2024-02-21T06:29:11;101379.56;;;5.92;100.00
64521;BME280;50896;46.714;17.322;2024-02-21T06:31:40;101374.69;;;5.86;100.00
64521;BME280;50896;46.714;17.322;2024-02-21T06:34:07;101383.47;;;5.86;100.00
64521;BME280;50896;46.714;17.322;2024-02-21T06:36:34;101390.97;;;5.79;100.00
64521;BME280;50896;46.714;17.322;2024-02-21T06:39:01;101414.41;;;5.84;100.00
64521;BME280;50896;46.714;17.322;2024-02-21T06:41:27;101411.16;;;5.80;100.00
64521;BME280;50896;46.714;17.322;2024-02-21T06:43:57;101410.16;;;5.81;100.00
64521;BME280;50896;46.714;17.322;2024-02-21T06:46:28;101402.47;;;5.78;100.00
64521;BME280;50896;46.714;17.322;2024-02-21T06:49:02;101409.44;;;5.79;100.00
64521;BME280;50896;46.714;17.322;2024-02-21T06:51:30;101407.66;;;5.80;100.00
64521;BME280;50896;46.714;17.322;2024-02-21T06:53:57;101402.25;;;5.81;100.00
64521;BME280;50896;46.714;17.322;2024-02-21T06:56:24;101411.75;;;5.84;100.00
64521;BME280;50896;46.714;17.322;2024-02-21T06:58:55;101414.19;;;5.87;100.00
64521;BME280;50896;46.714;17.322;2024-02-21T07:01:25;101412.81;;;5.81;100.00
64521;BME280;50896;46.714;17.322;2024-02-21T07:03:52;101415.16;;;5.86;100.00
64521;BME280;50896;46.714;17.322;2024-02-21T07:06:19;101417.69;;;5.88;100.00
64521;BME280;50896;46.714;17.322;2024-02-21T07:08:46;101403.22;;;5.93;100.00
64521;BME280;50896;46.714;17.322;2024-02-21T07:11:13;101415.75;;;5.90;100.00
64521;BME280;50896;46.714;17.322;2024-02-21T07:13:40;101423.47;;;5.93;100.00
64521;BME280;50896;46.714;17.322;2024-02-21T07:16:07;101418.94;;;5.95;100.00
64521;BME280;50896;46.714;17.322;2024-02-21T07:18:35;101420.44;;;5.99;100.00
64521;BME280;50896;46.714;17.322;2024-02-21T07:21:02;101414.94;;;6.02;100.00
64521;BME280;50896;46.714;17.322;2024-02-21T07:23:29;101419.78;;;6.08;100.00
64521;BME280;50896;46.714;17.322;2024-02-21T07:25:56;101416.19;;;6.09;100.00
64521;BME280;50896;46.714;17.322;2024-02-21T07:28:23;101411.78;;;6.10;100.00
64521;BME280;50896;46.714;17.322;2024-02-21T07:30:49;101405.22;;;6.15;100.00
64521;BME280;50896;46.714;17.322;2024-02-21T07:33:16;101400.88;;;6.14;100.00
64521;BME280;50896;46.714;17.322;2024-02-21T07:35:43;101401.59;;;6.16;100.00
64521;BME280;50896;46.714;17.322;2024-02-21T07:38:11;101395.47;;;6.16;100.00
64521;BME280;50896;46.714;17.322;2024-02-21T07:40:40;101395.03;;;6.22;100.00
64521;BME280;50896;46.714;17.322;2024-02-21T07:43:07;101392.78;;;6.29;100.00
64521;BME280;50896;46.714;17.322;2024-02-21T07:45:34;101396.06;;;6.32;100.00
64521;BME280;50896;46.714;17.322;2024-02-21T07:48:00;101385.75;;;6.29;100.00
64521;BME280;50896;46.714;17.322;2024-02-21T07:50:27;101386.00;;;6.38;100.00
64521;BME280;50896;46.714;17.322;2024-02-21T07:52:54;101378.72;;;6.41;100.00
64521;BME280;50896;46.714;17.322;2024-02-21T07:55:22;101382.41;;;6.39;100.00
64521;BME280;50896;46.714;17.322;2024-02-21T07:57:48;101388.09;;;6.45;100.00
64521;BME280;50896;46.714;17.322;2024-02-21T08:00:16;101387.75;;;6.50;100.00
64521;BME280;50896;46.714;17.322;2024-02-21T08:02:48;101387.31;;;6.56;100.00
64521;BME280;50896;46.714;17.322;2024-02-21T08:05:15;101381.69;;;6.61;100.00
64521;BME280;50896;46.714;17.322;2024-02-21T08:07:43;101374.94;;;6.57;100.00
64521;BME280;50896;46.714;17.322;2024-02-21T08:10:10;101378.16;;;6.73;100.00
64521;BME280;50896;46.714;17.322;2024-02-21T08:12:36;101370.22;;;6.73;100.00
64521;BME280;50896;46.714;17.322;2024-02-21T08:15:04;101374.84;;;6.82;100.00
64521;BME280;50896;46.714;17.322;2024-02-21T08:17:31;101372.78;;;6.86;100.00
64521;BME280;50896;46.714;17.322;2024-02-21T08:19:58;101377.00;;;6.89;100.00
64521;BME280;50896;46.714;17.322;2024-02-21T08:22:25;101364.63;;;6.89;100.00
64521;BME280;50896;46.714;17.322;2024-02-21T08:24:53;101380.16;;;6.94;100.00
64521;BME280;50896;46.714;17.322;2024-02-21T08:27:20;101386.41;;;6.93;100.00
64521;BME280;50896;46.714;17.322;2024-02-21T08:29:47;101388.22;;;6.92;100.00
64521;BME280;50896;46.714;17.322;2024-02-21T08:32:14;101388.38;;;7.02;100.00
64521;BME280;50896;46.714;17.322;2024-02-21T08:34:41;101378.97;;;6.98;100.00
64521;BME280;50896;46.714;17.322;2024-02-21T08:37:08;101391.84;;;7.03;100.00
64521;BME280;50896;46.714;17.322;2024-02-21T08:39:37;101391.72;;;7.04;100.00
64521;BME280;50896;46.714;17.322;2024-02-21T08:42:05;101382.59;;;7.08;100.00
64521;BME280;50896;46.714;17.322;2024-02-21T08:44:32;101387.66;;;7.11;100.00
64521;BME280;50896;46.714;17.322;2024-02-21T08:46:59;101379.72;;;7.11;100.00
64521;BME280;50896;46.714;17.322;2024-02-21T08:49:26;101376.94;;;7.13;100.00
64521;BME280;50896;46.714;17.322;2024-02-21T08:52:01;101374.09;;;7.16;100.00
64521;BME280;50896;46.714;17.322;2024-02-21T08:54:28;101368.69;;;7.17;100.00
64521;BME280;50896;46.714;17.322;2024-02-21T08:56:55;101360.28;;;7.24;100.00
64521;BME280;50896;46.714;17.322;2024-02-21T08:59:23;101360.66;;;7.42;100.00
64521;BME280;50896;46.714;17.322;2024-02-21T09:01:51;101351.91;;;7.52;100.00
64521;BME280;50896;46.714;17.322;2024-02-21T09:04:20;101345.53;;;7.66;100.00
64521;BME280;50896;46.714;17.322;2024-02-21T09:06:47;101341.06;;;7.78;100.00
64521;BME280;50896;46.714;17.322;2024-02-21T09:09:14;101345.63;;;7.87;100.00
64521;BME280;50896;46.714;17.322;2024-02-21T09:11:41;101340.69;;;7.94;100.00
64521;BME280;50896;46.714;17.322;2024-02-21T09:14:08;101340.06;;;8.02;100.00
64521;BME280;50896;46.714;17.322;2024-02-21T09:16:35;101338.84;;;8.17;100.00
64521;BME280;50896;46.714;17.322;2024-02-21T09:19:02;101344.72;;;8.32;100.00
64521;BME280;50896;46.714;17.322;2024-02-21T09:21:29;101338.53;;;8.43;100.00
64521;BME280;50896;46.714;17.322;2024-02-21T09:23:56;101338.41;;;8.56;100.00
64521;BME280;50896;46.714;17.322;2024-02-21T09:26:26;101325.69;;;8.71;100.00
64521;BME280;50896;46.714;17.322;2024-02-21T09:28:53;101325.75;;;8.81;100.00
64521;BME280;50896;46.714;17.322;2024-02-21T09:31:20;101335.09;;;8.96;100.00
64521;BME280;50896;46.714;17.322;2024-02-21T09:33:47;101316.94;;;9.01;100.00
64521;BME280;50896;46.714;17.322;2024-02-21T09:36:14;101327.53;;;9.13;100.00
64521;BME280;50896;46.714;17.322;2024-02-21T09:38:41;101318.56;;;9.14;100.00
64521;BME280;50896;46.714;17.322;2024-02-21T09:41:21;101309.31;;;9.08;100.00
64521;BME280;50896;46.714;17.322;2024-02-21T09:43:52;101324.59;;;9.16;100.00
64521;BME280;50896;46.714;17.322;2024-02-21T09:47:02;101323.63;;;9.17;100.00
64521;BME280;50896;46.714;17.322;2024-02-21T09:49:34;101314.53;;;9.19;100.00
64521;BME280;50896;46.714;17.322;2024-02-21T09:52:05;101315.88;;;9.35;100.00
64521;BME280;50896;46.714;17.322;2024-02-21T09:54:33;101314.13;;;9.45;100.00
64521;BME280;50896;46.714;17.322;2024-02-21T09:57:04;101312.91;;;9.49;100.00
64521;BME280;50896;46.714;17.322;2024-02-21T09:59:32;101313.06;;;9.57;100.00
64521;BME280;50896;46.714;17.322;2024-02-21T10:02:00;101318.41;;;9.67;100.00
64521;BME280;50896;46.714;17.322;2024-02-21T10:04:29;101317.91;;;9.83;100.00
64521;BME280;50896;46.714;17.322;2024-02-21T10:06:57;101315.81;;;9.87;100.00
64521;BME280;50896;46.714;17.322;2024-02-21T10:09:25;101316.13;;;9.94;100.00
64521;BME280;50896;46.714;17.322;2024-02-21T10:12:10;101320.06;;;9.99;100.00
64521;BME280;50896;46.714;17.322;2024-02-21T10:14:38;101322.28;;;9.94;100.00
64521;BME280;50896;46.714;17.322;2024-02-21T10:17:06;101318.22;;;10.00;100.00
64521;BME280;50896;46.714;17.322;2024-02-21T10:19:38;101316.84;;;10.05;100.00
64521;BME280;50896;46.714;17.322;2024-02-21T10:22:08;101310.13;;;10.11;100.00
64521;BME280;50896;46.714;17.322;2024-02-21T10:24:36;101303.28;;;10.18;100.00
64521;BME280;50896;46.714;17.322;2024-02-21T10:27:09;101300.50;;;10.30;98.26
64521;BME280;50896;46.714;17.322;2024-02-21T10:29:40;101290.19;;;10.46;100.00
64521;BME280;50896;46.714;17.322;2024-02-21T10:32:10;101292.56;;;10.69;97.39
64521;BME280;50896;46.714;17.322;2024-02-21T10:34:39;101282.44;;;10.92;84.92
64521;BME280;50896;46.714;17.322;2024-02-21T10:37:08;101281.56;;;11.11;77.48
64521;BME280;50896;46.714;17.322;2024-02-21T10:39:40;101272.47;;;11.14;81.08
64521;BME280;50896;46.714;17.322;2024-02-21T10:42:10;101272.56;;;11.12;98.65
64521;BME280;50896;46.714;17.322;2024-02-21T10:44:39;101267.28;;;11.02;100.00
64521;BME280;50896;46.714;17.322;2024-02-21T10:47:08;101256.97;;;10.89;87.73
64521;BME280;50896;46.714;17.322;2024-02-21T10:49:44;101254.19;;;10.81;85.12
64521;BME280;50896;46.714;17.322;2024-02-21T10:52:17;101248.31;;;10.77;86.03
64521;BME280;50896;46.714;17.322;2024-02-21T10:54:59;101254.19;;;10.81;98.18
64521;BME280;50896;46.714;17.322;2024-02-21T10:57:27;101247.44;;;10.87;98.36
64521;BME280;50896;46.714;17.322;2024-02-21T10:59:55;101235.94;;;10.96;100.00
64521;BME280;50896;46.714;17.322;2024-02-21T11:02:23;101227.00;;;10.97;100.00
64521;BME280;50896;46.714;17.322;2024-02-21T11:04:51;101220.50;;;11.09;91.67
64521;BME280;50896;46.714;17.322;2024-02-21T11:07:20;101208.72;;;11.40;71.96
64521;BME280;50896;46.714;17.322;2024-02-21T11:09:51;101203.22;;;11.69;70.59
64521;BME280;50896;46.714;17.322;2024-02-21T11:12:23;101210.28;;;12.24;64.15
64521;BME280;50896;46.714;17.322;2024-02-21T11:14:50;101202.78;;;12.46;66.75
64521;BME280;50896;46.714;17.322;2024-02-21T11:17:18;101196.06;;;12.42;63.74
64521;BME280;50896;46.714;17.322;2024-02-21T11:19:45;101197.84;;;12.33;58.97
64521;BME280;50896;46.714;17.322;2024-02-21T11:22:20;101184.63;;;12.23;70.22
64521;BME280;50896;46.714;17.322;2024-02-21T11:24:51;101187.13;;;12.07;78.60
64521;BME280;50896;46.714;17.322;2024-02-21T11:27:21;101188.81;;;12.08;83.15
64521;BME280;50896;46.714;17.322;2024-02-21T11:29:49;101177.97;;;11.91;64.63
64521;BME280;50896;46.714;17.322;2024-02-21T11:32:21;101180.28;;;11.86;68.66
64521;BME280;50896;46.714;17.322;2024-02-21T11:35:01;101177.78;;;11.85;70.59
64521;BME280;50896;46.714;17.322;2024-02-21T11:37:33;101166.25;;;11.84;66.18
64521;BME280;50896;46.714;17.322;2024-02-21T11:40:00;101166.25;;;11.84;66.05
64521;BME280;50896;46.714;17.322;2024-02-21T11:42:29;101161.16;;;11.73;71.67
64521;BME280;50896;46.714;17.322;2024-02-21T11:44:57;101160.84;;;11.76;72.37
64521;BME280;50896;46.714;17.322;2024-02-21T11:47:24;101157.50;;;11.74;64.11
64521;BME280;50896;46.714;17.322;2024-02-21T11:49:51;101155.53;;;11.76;79.19
64521;BME280;50896;46.714;17.322;2024-02-21T11:52:23;101160.78;;;11.86;64.88
64521;BME280;50896;46.714;17.322;2024-02-21T11:54:52;101154.78;;;12.02;58.48
64521;BME280;50896;46.714;17.322;2024-02-21T11:57:20;101148.38;;;12.12;56.28
64521;BME280;50896;46.714;17.322;2024-02-21T11:59:47;101139.41;;;12.40;57.22
64521;BME280;50896;46.714;17.322;2024-02-21T12:02:17;101124.22;;;12.67;57.19
64521;BME280;50896;46.714;17.322;2024-02-21T12:04:45;101129.97;;;12.80;54.31
64521;BME280;50896;46.714;17.322;2024-02-21T12:07:12;101123.66;;;12.89;50.77
64521;BME280;50896;46.714;17.322;2024-02-21T12:09:41;101112.19;;;12.97;52.61
64521;BME280;50896;46.714;17.322;2024-02-21T12:12:08;101108.59;;;13.14;52.11
64521;BME280;50896;46.714;17.322;2024-02-21T12:14:35;101098.78;;;13.23;49.95
64521;BME280;50896;46.714;17.322;2024-02-21T12:17:03;101098.88;;;13.73;50.43
64521;BME280;50896;46.714;17.322;2024-02-21T12:19:32;101096.72;;;13.76;51.01
64521;BME280;50896;46.714;17.322;2024-02-21T12:21:59;101086.16;;;14.24;48.44
64521;BME280;50896;46.714;17.322;2024-02-21T12:24:28;101076.03;;;14.51;47.58
64521;BME280;50896;46.714;17.322;2024-02-21T12:26:56;101074.41;;;14.50;46.56
64521;BME280;50896;46.714;17.322;2024-02-21T12:29:24;101066.75;;;14.39;46.42
64521;BME280;50896;46.714;17.322;2024-02-21T12:31:56;101064.28;;;14.21;48.12
64521;BME280;50896;46.714;17.322;2024-02-21T12:34:23;101065.47;;;14.01;46.14
64521;BME280;50896;46.714;17.322;2024-02-21T12:37:10;101050.13;;;13.87;45.40
64521;BME280;50896;46.714;17.322;2024-02-21T12:39:40;101044.59;;;13.80;44.72
64521;BME280;50896;46.714;17.322;2024-02-21T12:42:07;101045.59;;;13.79;43.60
64521;BME280;50896;46.714;17.322;2024-02-21T12:44:33;101046.78;;;13.77;43.63
64521;BME280;50896;46.714;17.322;2024-02-21T12:47:00;101048.09;;;13.64;43.21